createdAt,value
2017-08-24T00:00:03.058Z,19.77
2017-08-24T00:00:07.327Z,19.70
2017-08-24T00:00:11.582Z,19.90
2017-08-24T00:00:15.868Z,19.90
2017-08-24T00:00:20.140Z,19.97
2017-08-24T00:00:24.391Z,20.30
2017-08-24T00:00:28.640Z,20.40
2017-08-24T00:00:32.891Z,20.45
2017-08-24T00:00:37.147Z,22.23
2017-08-24T00:00:41.411Z,21.80
2017-08-24T00:00:45.667Z,21.20
2017-08-24T00:00:49.925Z,20.93
2017-08-24T00:00:54.192Z,20.60
2017-08-24T00:00:58.436Z,20.20
2017-08-24T00:01:02.683Z,20.25
2017-08-24T00:01:06.922Z,20.00
2017-08-24T00:01:11.173Z,19.95
2017-08-24T00:01:15.428Z,19.90
2017-08-24T00:01:19.661Z,20.55
2017-08-24T00:01:23.928Z,20.10
2017-08-24T00:01:28.181Z,19.80
2017-08-24T00:01:32.431Z,19.50
2017-08-24T00:01:36.679Z,18.00
2017-08-24T00:01:40.926Z,17.93
2017-08-24T00:01:45.184Z,18.00
2017-08-24T00:01:49.426Z,17.95
2017-08-24T00:01:53.675Z,17.40
2017-08-24T00:01:57.935Z,17.43
2017-08-24T00:02:02.203Z,17.20
2017-08-24T00:02:06.460Z,17.15
2017-08-24T00:02:10.709Z,16.97
2017-08-24T00:02:14.980Z,17.20
2017-08-24T00:02:19.209Z,16.90
2017-08-24T00:02:23.460Z,17.00
2017-08-24T00:02:27.725Z,17.70
2017-08-24T00:02:31.988Z,17.90
2017-08-24T00:02:36.213Z,18.50
2017-08-24T00:02:40.482Z,18.25
2017-08-24T00:02:44.722Z,17.97
2017-08-24T00:02:48.983Z,17.70
2017-08-24T00:02:53.232Z,17.85
2017-08-24T00:02:57.499Z,18.15
2017-08-24T00:03:01.746Z,18.40
2017-08-24T00:03:05.985Z,18.50
2017-08-24T00:03:10.229Z,17.95
2017-08-24T00:03:14.505Z,17.63
2017-08-24T00:03:18.766Z,17.55
2017-08-24T00:03:23.003Z,17.75
2017-08-24T00:03:27.241Z,17.80
2017-08-24T00:03:31.507Z,17.80
2017-08-24T00:03:35.769Z,17.85
2017-08-24T00:03:40.019Z,18.20
2017-08-24T00:03:44.253Z,18.60
2017-08-24T00:03:48.502Z,18.27
2017-08-24T00:03:52.746Z,18.30
2017-08-24T00:03:57.007Z,18.00
2017-08-24T00:04:01.264Z,18.00
2017-08-24T00:04:05.567Z,17.83
2017-08-24T00:04:10.565Z,18.05
2017-08-24T00:04:14.817Z,18.40
2017-08-24T00:04:19.078Z,18.90
2017-08-24T00:04:23.319Z,18.80
2017-08-24T00:04:27.576Z,18.55
2017-08-24T00:04:31.831Z,18.70
2017-08-24T00:04:36.070Z,18.80
2017-08-24T00:04:40.330Z,18.50
2017-08-24T00:04:44.569Z,18.15
2017-08-24T00:04:48.832Z,18.25
2017-08-24T00:04:53.061Z,18.15
2017-08-24T00:04:57.319Z,18.53
2017-08-24T00:05:01.561Z,18.60
2017-08-24T00:05:05.826Z,18.35
2017-08-24T00:05:10.211Z,18.45
2017-08-24T00:05:14.455Z,18.40
2017-08-24T00:05:18.717Z,18.10
2017-08-24T00:05:22.946Z,17.80
2017-08-24T00:05:27.216Z,17.93
2017-08-24T00:05:31.482Z,17.45
2017-08-24T00:05:35.743Z,17.30
2017-08-24T00:05:39.996Z,17.55
2017-08-24T00:05:44.264Z,17.60
2017-08-24T00:05:48.519Z,17.70
2017-08-24T00:05:52.769Z,17.40
2017-08-24T00:05:57.040Z,17.43
2017-08-24T00:06:01.280Z,17.45
2017-08-24T00:06:05.525Z,17.70
2017-08-24T00:06:09.779Z,17.40
2017-08-24T00:06:14.025Z,17.43
2017-08-24T00:06:18.303Z,17.30
2017-08-24T00:06:22.555Z,17.25
2017-08-24T00:06:26.793Z,17.20
2017-08-24T00:06:31.058Z,16.93
2017-08-24T00:06:35.297Z,16.85
2017-08-24T00:06:39.567Z,16.80
2017-08-24T00:06:43.819Z,16.70
2017-08-24T00:06:48.079Z,16.67
2017-08-24T00:06:52.327Z,16.40
2017-08-24T00:06:56.575Z,16.60
2017-08-24T00:07:00.832Z,16.50
2017-08-24T00:07:05.081Z,16.25
2017-08-24T00:07:09.318Z,16.15
2017-08-24T00:07:13.569Z,15.85
2017-08-24T00:07:17.809Z,15.97
2017-08-24T00:07:22.075Z,16.85
2017-08-24T00:07:26.306Z,16.75
2017-08-24T00:07:30.580Z,16.65
2017-08-24T00:07:34.839Z,16.30
2017-08-24T00:07:39.085Z,15.60
2017-08-24T00:07:43.325Z,15.50
2017-08-24T00:07:47.583Z,15.35
2017-08-24T00:07:51.848Z,16.67
2017-08-24T00:07:56.109Z,16.25
2017-08-24T00:08:00.341Z,16.20
2017-08-24T00:08:04.601Z,15.83
2017-08-24T00:08:08.853Z,17.05
2017-08-24T00:08:13.111Z,17.70
2017-08-24T00:08:17.355Z,17.75
2017-08-24T00:08:21.631Z,17.77
2017-08-24T00:08:25.891Z,17.70
2017-08-24T00:08:30.133Z,18.65
2017-08-24T00:08:34.383Z,18.85
2017-08-24T00:08:38.629Z,19.03
2017-08-24T00:08:42.875Z,19.00
2017-08-24T00:08:47.127Z,19.00
2017-08-24T00:08:51.380Z,18.30
2017-08-24T00:08:55.639Z,19.37
2017-08-24T00:08:59.877Z,19.50
2017-08-24T00:09:04.134Z,20.10
2017-08-24T00:09:09.136Z,19.20
2017-08-24T00:09:13.403Z,18.10
2017-08-24T00:09:17.654Z,18.33
2017-08-24T00:09:21.915Z,18.15
2017-08-24T00:09:26.165Z,18.45
2017-08-24T00:09:30.406Z,18.17
2017-08-24T00:09:34.663Z,18.15
2017-08-24T00:09:38.901Z,17.80
2017-08-24T00:09:43.159Z,18.10
2017-08-24T00:09:47.418Z,18.77
2017-08-24T00:09:51.661Z,19.20
2017-08-24T00:09:55.897Z,18.25
2017-08-24T00:10:00.152Z,18.30
2017-08-24T00:10:04.421Z,18.17
2017-08-24T00:10:08.655Z,18.55
2017-08-24T00:10:12.909Z,18.80
2017-08-24T00:10:17.150Z,18.50
2017-08-24T00:10:21.405Z,18.53
2017-08-24T00:10:25.649Z,19.80
2017-08-24T00:10:29.893Z,20.20
2017-08-24T00:10:34.148Z,20.20
2017-08-24T00:10:38.407Z,20.77
2017-08-24T00:10:42.641Z,21.65
2017-08-24T00:10:46.882Z,21.45
2017-08-24T00:10:51.132Z,20.90
2017-08-24T00:10:55.404Z,20.90
2017-08-24T00:10:59.659Z,20.70
2017-08-24T00:11:03.894Z,20.60
2017-08-24T00:11:08.159Z,20.47
2017-08-24T00:11:12.408Z,20.55
2017-08-24T00:11:16.657Z,20.50
2017-08-24T00:11:20.913Z,20.30
2017-08-24T00:11:25.153Z,18.97
2017-08-24T00:11:29.405Z,19.80
2017-08-24T00:11:33.650Z,19.85
2017-08-24T00:11:37.908Z,19.90
2017-08-24T00:11:42.159Z,19.63
2017-08-24T00:11:46.421Z,19.40
2017-08-24T00:11:50.675Z,18.70
2017-08-24T00:11:54.925Z,18.67
2017-08-24T00:11:59.182Z,19.00
2017-08-24T00:12:03.436Z,19.00
2017-08-24T00:12:07.673Z,19.30
2017-08-24T00:12:11.926Z,19.00
2017-08-24T00:12:16.177Z,18.70
2017-08-24T00:12:20.424Z,18.65
2017-08-24T00:12:24.695Z,18.85
2017-08-24T00:12:28.942Z,17.20
2017-08-24T00:12:33.200Z,16.95
2017-08-24T00:12:37.451Z,16.95
2017-08-24T00:12:41.704Z,16.65
2017-08-24T00:12:45.984Z,16.50
2017-08-24T00:12:50.241Z,16.70
2017-08-24T00:12:54.491Z,16.75
2017-08-24T00:12:58.741Z,16.90
2017-08-24T00:13:03.011Z,16.75
2017-08-24T00:13:07.249Z,16.45
2017-08-24T00:13:11.507Z,16.50
2017-08-24T00:13:15.746Z,17.50
2017-08-24T00:13:20.008Z,17.65
2017-08-24T00:13:24.243Z,17.35
2017-08-24T00:13:28.495Z,17.25
2017-08-24T00:13:33.756Z,17.13
2017-08-24T00:13:38.334Z,17.70
2017-08-24T00:13:42.583Z,18.10
2017-08-24T00:13:46.850Z,19.07
2017-08-24T00:13:51.100Z,20.05
2017-08-24T00:13:56.004Z,20.00
2017-08-24T00:14:00.445Z,20.00
2017-08-24T00:14:04.711Z,20.20
2017-08-24T00:14:09.089Z,20.85
2017-08-24T00:14:13.344Z,20.95
2017-08-24T00:14:17.609Z,20.37
2017-08-24T00:14:21.841Z,20.75
2017-08-24T00:14:26.102Z,21.70
2017-08-24T00:14:30.443Z,21.80
2017-08-24T00:14:34.693Z,21.70
2017-08-24T00:14:38.938Z,20.70
2017-08-24T00:14:43.195Z,20.70
2017-08-24T00:14:47.456Z,19.83
2017-08-24T00:14:51.710Z,19.95
2017-08-24T00:14:55.955Z,21.65
2017-08-24T00:15:00.181Z,22.80
2017-08-24T00:15:04.435Z,22.53
2017-08-24T00:15:08.691Z,22.15
2017-08-24T00:15:13.713Z,21.90
2017-08-24T00:15:17.956Z,22.00
2017-08-24T00:15:22.193Z,22.00
2017-08-24T00:15:27.202Z,21.27
2017-08-24T00:15:31.454Z,21.30
2017-08-24T00:15:35.719Z,21.60
2017-08-24T00:15:40.735Z,22.20
2017-08-24T00:15:44.990Z,22.23
2017-08-24T00:15:49.238Z,22.17
2017-08-24T00:15:53.502Z,21.75
2017-08-24T00:15:57.772Z,20.20
2017-08-24T00:16:01.993Z,20.05
2017-08-24T00:16:06.253Z,20.10
2017-08-24T00:16:10.489Z,19.95
2017-08-24T00:16:14.729Z,20.30
2017-08-24T00:16:19.751Z,20.35
2017-08-24T00:16:24.003Z,20.30
2017-08-24T00:16:28.267Z,20.13
2017-08-24T00:16:32.525Z,20.40
2017-08-24T00:16:36.762Z,20.45
2017-08-24T00:16:41.009Z,20.30
2017-08-24T00:16:45.283Z,20.60
2017-08-24T00:16:49.521Z,20.60
2017-08-24T00:16:53.767Z,20.20
2017-08-24T00:16:58.015Z,19.95
2017-08-24T00:17:02.262Z,20.00
2017-08-24T00:17:06.501Z,20.95
2017-08-24T00:17:10.741Z,21.40
2017-08-24T00:17:15.003Z,22.10
2017-08-24T00:17:19.263Z,22.65
2017-08-24T00:17:23.513Z,23.00
2017-08-24T00:17:27.746Z,23.85
2017-08-24T00:17:31.990Z,24.17
2017-08-24T00:17:36.255Z,24.40
2017-08-24T00:17:40.497Z,25.15
2017-08-24T00:17:44.742Z,24.25
2017-08-24T00:17:49.008Z,23.57
2017-08-24T00:17:53.251Z,23.40
2017-08-24T00:17:57.504Z,25.30
2017-08-24T00:18:01.755Z,25.35
2017-08-24T00:18:06.015Z,25.23
2017-08-24T00:18:10.253Z,24.75
2017-08-24T00:18:14.510Z,24.55
2017-08-24T00:18:18.749Z,24.05
2017-08-24T00:18:22.994Z,23.37
2017-08-24T00:18:27.233Z,22.65
2017-08-24T00:18:31.492Z,22.30
2017-08-24T00:18:35.743Z,21.73
2017-08-24T00:18:40.758Z,21.30
2017-08-24T00:18:45.015Z,21.60
2017-08-24T00:18:49.263Z,21.85
2017-08-24T00:18:53.501Z,22.65
2017-08-24T00:18:57.771Z,21.67
2017-08-24T00:19:02.013Z,22.45
2017-08-24T00:19:06.271Z,21.65
2017-08-24T00:19:10.501Z,21.50
2017-08-24T00:19:14.753Z,21.07
2017-08-24T00:19:19.014Z,21.45
2017-08-24T00:19:23.274Z,22.15
2017-08-24T00:19:27.509Z,22.50
2017-08-24T00:19:31.771Z,22.90
2017-08-24T00:19:36.013Z,23.20
2017-08-24T00:19:40.268Z,22.90
2017-08-24T00:19:44.527Z,22.90
2017-08-24T00:19:48.783Z,23.23
2017-08-24T00:19:53.026Z,23.05
2017-08-24T00:19:57.287Z,23.05
2017-08-24T00:20:01.517Z,22.07
2017-08-24T00:20:05.757Z,21.90
2017-08-24T00:20:10.014Z,22.45
2017-08-24T00:20:14.277Z,22.30
2017-08-24T00:20:18.498Z,21.97
2017-08-24T00:20:22.747Z,21.45
2017-08-24T00:20:27.746Z,21.50
2017-08-24T00:20:32.029Z,22.87
2017-08-24T00:20:36.291Z,23.70
2017-08-24T00:20:40.535Z,23.63
2017-08-24T00:20:44.769Z,23.40
2017-08-24T00:20:49.024Z,22.85
2017-08-24T00:20:53.273Z,22.45
2017-08-24T00:20:57.537Z,21.80
2017-08-24T00:21:01.785Z,21.85
2017-08-24T00:21:06.034Z,22.20
2017-08-24T00:21:10.283Z,21.77
2017-08-24T00:21:14.543Z,21.75
2017-08-24T00:21:18.791Z,21.70
2017-08-24T00:21:23.045Z,21.75
2017-08-24T00:21:27.277Z,21.37
2017-08-24T00:21:31.526Z,19.85
2017-08-24T00:21:35.769Z,19.30
2017-08-24T00:21:40.023Z,19.65
2017-08-24T00:21:44.307Z,19.30
2017-08-24T00:21:48.572Z,19.30
2017-08-24T00:21:52.839Z,20.55
2017-08-24T00:21:57.102Z,21.10
2017-08-24T00:22:01.363Z,22.43
2017-08-24T00:22:05.619Z,22.40
2017-08-24T00:22:09.887Z,22.25
2017-08-24T00:22:14.129Z,22.43
2017-08-24T00:22:18.387Z,23.55
2017-08-24T00:22:22.630Z,24.15
2017-08-24T00:22:26.898Z,24.10
2017-08-24T00:22:31.159Z,24.07
2017-08-24T00:22:36.169Z,23.65
2017-08-24T00:22:41.219Z,23.17
2017-08-24T00:22:45.450Z,23.60
2017-08-24T00:22:49.701Z,23.90
2017-08-24T00:22:53.954Z,23.65
2017-08-24T00:22:58.212Z,23.03
2017-08-24T00:23:02.459Z,22.00
2017-08-24T00:23:06.715Z,21.85
2017-08-24T00:23:10.959Z,22.10
2017-08-24T00:23:15.210Z,22.15
2017-08-24T00:23:19.459Z,22.40
2017-08-24T00:23:23.694Z,22.20
2017-08-24T00:23:27.970Z,22.60
2017-08-24T00:23:32.202Z,23.35
2017-08-24T00:23:36.457Z,23.70
2017-08-24T00:23:40.686Z,24.25
2017-08-24T00:23:44.951Z,24.57
2017-08-24T00:23:49.189Z,25.15
2017-08-24T00:23:53.448Z,25.20
2017-08-24T00:23:57.700Z,25.20
2017-08-24T00:24:01.967Z,24.80
2017-08-24T00:24:06.205Z,24.65
2017-08-24T00:24:10.445Z,24.65
2017-08-24T00:24:14.681Z,24.30
2017-08-24T00:24:19.713Z,23.53
2017-08-24T00:24:23.975Z,23.67
2017-08-24T00:24:28.225Z,23.10
2017-08-24T00:24:32.498Z,22.30
2017-08-24T00:24:36.734Z,22.43
2017-08-24T00:24:40.961Z,21.90
2017-08-24T00:24:45.205Z,21.80
2017-08-24T00:24:49.461Z,20.65
2017-08-24T00:24:53.702Z,20.00
2017-08-24T00:24:57.956Z,19.90
2017-08-24T00:25:02.193Z,20.20
2017-08-24T00:25:06.434Z,20.30
2017-08-24T00:25:10.693Z,20.50
2017-08-24T00:25:14.956Z,20.40
2017-08-24T00:25:19.971Z,20.00
2017-08-24T00:25:24.205Z,20.07
2017-08-24T00:25:28.449Z,20.45
2017-08-24T00:25:32.719Z,20.57
2017-08-24T00:25:36.961Z,20.50
2017-08-24T00:25:41.218Z,21.30
2017-08-24T00:25:46.239Z,21.43
2017-08-24T00:25:50.487Z,21.17
2017-08-24T00:25:54.754Z,22.10
2017-08-24T00:25:59.020Z,22.85
2017-08-24T00:26:03.257Z,23.60
2017-08-24T00:26:07.509Z,24.00
2017-08-24T00:26:11.747Z,24.05
2017-08-24T00:26:16.003Z,24.05
2017-08-24T00:26:20.259Z,24.20
2017-08-24T00:26:24.505Z,24.03
2017-08-24T00:26:28.855Z,23.65
2017-08-24T00:26:33.091Z,23.70
2017-08-24T00:26:37.344Z,24.10
2017-08-24T00:26:41.582Z,23.75
2017-08-24T00:26:45.835Z,23.95
2017-08-24T00:26:50.080Z,24.30
2017-08-24T00:26:54.328Z,24.07
2017-08-24T00:26:58.595Z,23.30
2017-08-24T00:27:02.844Z,22.85
2017-08-24T00:27:07.091Z,22.80
2017-08-24T00:27:11.351Z,22.73
2017-08-24T00:27:15.599Z,22.85
2017-08-24T00:27:19.833Z,22.95
2017-08-24T00:27:24.092Z,23.60
2017-08-24T00:27:28.355Z,23.07
2017-08-24T00:27:32.589Z,23.00
2017-08-24T00:27:36.844Z,22.05
2017-08-24T00:27:41.096Z,21.90
2017-08-24T00:27:45.343Z,21.90
2017-08-24T00:27:49.595Z,21.45
2017-08-24T00:27:53.843Z,20.90
2017-08-24T00:27:58.085Z,20.90
2017-08-24T00:28:02.343Z,21.10
2017-08-24T00:28:06.595Z,21.70
2017-08-24T00:28:10.843Z,21.95
2017-08-24T00:28:15.111Z,22.30
2017-08-24T00:28:19.349Z,23.40
2017-08-24T00:28:23.597Z,23.30
2017-08-24T00:28:27.847Z,23.45
2017-08-24T00:28:32.107Z,23.23
2017-08-24T00:28:36.360Z,23.45
2017-08-24T00:28:40.611Z,23.20
2017-08-24T00:28:44.859Z,23.80
2017-08-24T00:28:49.195Z,24.67
2017-08-24T00:28:53.438Z,24.95
2017-08-24T00:28:57.691Z,25.40
2017-08-24T00:29:01.947Z,25.17
2017-08-24T00:29:06.199Z,24.75
2017-08-24T00:29:10.451Z,24.55
2017-08-24T00:29:14.685Z,24.30
2017-08-24T00:29:18.938Z,23.17
2017-08-24T00:29:23.186Z,23.30
2017-08-24T00:29:27.421Z,23.00
2017-08-24T00:29:31.683Z,22.90
2017-08-24T00:29:35.959Z,22.83
2017-08-24T00:29:40.197Z,22.75
2017-08-24T00:29:44.469Z,21.80
2017-08-24T00:29:48.733Z,22.30
2017-08-24T00:29:52.985Z,22.65
2017-08-24T00:29:57.275Z,22.85
2017-08-24T00:30:01.523Z,23.60
2017-08-24T00:30:05.788Z,23.90
2017-08-24T00:30:10.039Z,25.20
2017-08-24T00:30:14.274Z,25.85
2017-08-24T00:30:18.533Z,26.05
2017-08-24T00:30:22.795Z,25.67
2017-08-24T00:30:27.029Z,25.60
2017-08-24T00:30:31.289Z,25.45
2017-08-24T00:30:35.546Z,25.80
2017-08-24T00:30:39.856Z,25.87
2017-08-24T00:30:44.069Z,26.10
2017-08-24T00:30:48.324Z,25.45
2017-08-24T00:30:52.591Z,25.03
2017-08-24T00:30:56.847Z,24.65
2017-08-24T00:31:01.101Z,24.15
2017-08-24T00:31:05.347Z,24.50
2017-08-24T00:31:09.605Z,23.53
2017-08-24T00:31:13.867Z,23.75
2017-08-24T00:31:18.887Z,23.95
2017-08-24T00:31:23.135Z,24.17
2017-08-24T00:31:27.399Z,24.20
2017-08-24T00:31:31.659Z,25.10
2017-08-24T00:31:35.911Z,25.30
2017-08-24T00:31:40.162Z,25.70
2017-08-24T00:31:44.429Z,25.50
2017-08-24T00:31:49.421Z,25.60
2017-08-24T00:31:53.664Z,25.60
2017-08-24T00:31:57.924Z,25.75
2017-08-24T00:32:02.164Z,25.80
2017-08-24T00:32:06.427Z,25.30
2017-08-24T00:32:10.689Z,25.15
2017-08-24T00:32:14.936Z,24.15
2017-08-24T00:32:19.955Z,24.55
2017-08-24T00:32:24.207Z,24.30
2017-08-24T00:32:28.453Z,24.40
2017-08-24T00:32:32.706Z,24.05
2017-08-24T00:32:36.963Z,24.50
2017-08-24T00:32:41.209Z,25.03
2017-08-24T00:32:45.453Z,25.05
2017-08-24T00:32:49.716Z,26.00
2017-08-24T00:32:53.955Z,27.00
2017-08-24T00:32:58.193Z,27.80
2017-08-24T00:33:02.439Z,27.90
2017-08-24T00:33:06.698Z,28.00
2017-08-24T00:33:10.924Z,28.80
2017-08-24T00:33:15.163Z,30.03
2017-08-24T00:33:19.418Z,29.85
2017-08-24T00:33:23.783Z,30.40
2017-08-24T00:33:28.015Z,31.15
2017-08-24T00:33:32.265Z,31.07
2017-08-24T00:33:36.506Z,30.00
2017-08-24T00:33:40.759Z,29.40
2017-08-24T00:33:44.997Z,29.50
2017-08-24T00:33:49.263Z,28.27
2017-08-24T00:33:53.506Z,26.65
2017-08-24T00:33:57.769Z,26.50
2017-08-24T00:34:02.006Z,26.10
2017-08-24T00:34:06.263Z,26.30
2017-08-24T00:34:10.524Z,25.75
2017-08-24T00:34:14.757Z,25.35
2017-08-24T00:34:19.005Z,25.57
2017-08-24T00:34:23.259Z,25.85
2017-08-24T00:34:27.493Z,25.15
2017-08-24T00:34:31.741Z,25.30
2017-08-24T00:34:35.993Z,25.73
2017-08-24T00:34:40.233Z,26.40
2017-08-24T00:34:44.477Z,26.50
2017-08-24T00:34:48.717Z,27.10
2017-08-24T00:34:52.979Z,27.30
2017-08-24T00:34:57.233Z,26.70
2017-08-24T00:35:01.492Z,27.00
2017-08-24T00:35:05.736Z,27.20
2017-08-24T00:35:09.997Z,26.93
2017-08-24T00:35:14.241Z,27.20
2017-08-24T00:35:18.496Z,27.60
2017-08-24T00:35:22.729Z,27.20
2017-08-24T00:35:26.995Z,27.25
2017-08-24T00:35:31.229Z,26.90
2017-08-24T00:35:35.477Z,27.15
2017-08-24T00:35:39.717Z,27.03
2017-08-24T00:35:43.959Z,27.05
2017-08-24T00:35:48.201Z,26.95
2017-08-24T00:35:52.442Z,27.75
2017-08-24T00:35:56.700Z,27.97
2017-08-24T00:36:00.958Z,28.35
2017-08-24T00:36:05.212Z,28.30
2017-08-24T00:36:09.452Z,29.25
2017-08-24T00:36:13.719Z,29.43
2017-08-24T00:36:17.973Z,28.60
2017-08-24T00:36:22.210Z,28.80
2017-08-24T00:36:26.449Z,28.50
2017-08-24T00:36:30.721Z,28.77
2017-08-24T00:36:34.954Z,29.50
2017-08-24T00:36:39.208Z,29.45
2017-08-24T00:36:43.459Z,31.05
2017-08-24T00:36:47.719Z,31.73
2017-08-24T00:36:51.957Z,31.05
2017-08-24T00:36:56.208Z,30.75
2017-08-24T00:37:00.463Z,29.90
2017-08-24T00:37:04.705Z,29.70
2017-08-24T00:37:08.967Z,28.80
2017-08-24T00:37:13.216Z,28.15
2017-08-24T00:37:17.457Z,27.97
2017-08-24T00:37:21.723Z,28.65
2017-08-24T00:37:25.971Z,28.90
2017-08-24T00:37:30.223Z,28.70
2017-08-24T00:37:35.242Z,27.53
2017-08-24T00:37:40.266Z,27.23
2017-08-24T00:37:44.511Z,25.43
2017-08-24T00:37:48.759Z,25.50
2017-08-24T00:37:53.028Z,25.55
2017-08-24T00:37:57.269Z,26.23
2017-08-24T00:38:01.531Z,27.20
2017-08-24T00:38:05.774Z,27.75
2017-08-24T00:38:10.032Z,28.45
2017-08-24T00:38:14.262Z,29.43
2017-08-24T00:38:18.513Z,29.40
2017-08-24T00:38:22.767Z,28.55
2017-08-24T00:38:27.010Z,28.80
2017-08-24T00:38:31.279Z,30.50
2017-08-24T00:38:35.528Z,30.85
2017-08-24T00:38:39.760Z,30.35
2017-08-24T00:38:44.009Z,30.85
2017-08-24T00:38:48.257Z,31.23
2017-08-24T00:38:53.287Z,31.45
2017-08-24T00:38:57.521Z,31.23
2017-08-24T00:39:01.783Z,30.60
2017-08-24T00:39:06.027Z,30.80
2017-08-24T00:39:10.278Z,30.33
2017-08-24T00:39:14.520Z,30.15
2017-08-24T00:39:18.765Z,30.55
2017-08-24T00:39:23.028Z,30.43
2017-08-24T00:39:27.270Z,30.05
2017-08-24T00:39:31.539Z,29.25
2017-08-24T00:39:35.781Z,29.20
2017-08-24T00:39:40.055Z,29.20
2017-08-24T00:39:44.291Z,28.10
2017-08-24T00:39:48.537Z,27.70
2017-08-24T00:39:52.793Z,27.30
2017-08-24T00:39:57.055Z,27.07
2017-08-24T00:40:01.303Z,27.45
2017-08-24T00:40:05.537Z,26.85
2017-08-24T00:40:09.795Z,26.95
2017-08-24T00:40:14.042Z,26.63
2017-08-24T00:40:18.284Z,25.95
2017-08-24T00:40:22.535Z,25.90
2017-08-24T00:40:26.778Z,26.15
2017-08-24T00:40:31.036Z,26.17
2017-08-24T00:40:35.269Z,26.40
2017-08-24T00:40:39.513Z,26.80
2017-08-24T00:40:43.757Z,27.87
2017-08-24T00:40:48.023Z,28.25
2017-08-24T00:40:52.261Z,28.50
2017-08-24T00:40:56.519Z,28.50
2017-08-24T00:41:00.825Z,27.80
2017-08-24T00:41:05.061Z,26.90
2017-08-24T00:41:09.320Z,27.30
2017-08-24T00:41:13.553Z,27.45
2017-08-24T00:41:18.566Z,28.40
2017-08-24T00:41:22.813Z,29.47
2017-08-24T00:41:27.062Z,29.25
2017-08-24T00:41:31.319Z,28.70
2017-08-24T00:41:35.580Z,28.65
2017-08-24T00:41:39.848Z,28.20
2017-08-24T00:41:44.081Z,27.90
2017-08-24T00:41:48.317Z,27.80
2017-08-24T00:41:52.575Z,27.70
2017-08-24T00:41:56.836Z,27.90
2017-08-24T00:42:01.087Z,28.35
2017-08-24T00:42:05.321Z,29.25
2017-08-24T00:42:09.588Z,29.03
2017-08-24T00:42:13.843Z,28.70
2017-08-24T00:42:18.095Z,28.25
2017-08-24T00:42:22.338Z,28.50
2017-08-24T00:42:26.603Z,27.87
2017-08-24T00:42:30.890Z,27.85
2017-08-24T00:42:35.127Z,27.95
2017-08-24T00:42:39.369Z,28.15
2017-08-24T00:42:43.635Z,28.67
2017-08-24T00:42:47.873Z,29.40
2017-08-24T00:42:52.113Z,29.65
2017-08-24T00:42:56.365Z,29.37
2017-08-24T00:43:00.613Z,29.25
2017-08-24T00:43:04.871Z,28.90
2017-08-24T00:43:09.105Z,29.15
2017-08-24T00:43:13.357Z,29.67
2017-08-24T00:43:17.623Z,30.45
2017-08-24T00:43:21.863Z,30.05
2017-08-24T00:43:26.114Z,30.40
2017-08-24T00:43:30.394Z,31.37
2017-08-24T00:43:34.659Z,32.00
2017-08-24T00:43:38.902Z,31.85
2017-08-24T00:43:43.157Z,31.60
2017-08-24T00:43:47.405Z,31.87
2017-08-24T00:43:51.687Z,31.65
2017-08-24T00:43:55.997Z,32.00
2017-08-24T00:44:00.260Z,32.53
2017-08-24T00:44:04.516Z,32.50
2017-08-24T00:44:08.763Z,31.90
2017-08-24T00:44:13.769Z,31.40
2017-08-24T00:44:18.010Z,30.53
2017-08-24T00:44:22.271Z,29.37
2017-08-24T00:44:26.510Z,29.35
2017-08-24T00:44:30.749Z,28.25
2017-08-24T00:44:34.990Z,27.75
2017-08-24T00:44:39.245Z,27.63
2017-08-24T00:44:43.499Z,27.10
2017-08-24T00:44:47.757Z,26.80
2017-08-24T00:44:52.022Z,26.87
2017-08-24T00:44:56.281Z,27.20
2017-08-24T00:45:01.296Z,27.40
2017-08-24T00:45:05.540Z,27.50
2017-08-24T00:45:09.783Z,27.60
2017-08-24T00:45:14.063Z,27.77
2017-08-24T00:45:18.314Z,27.80
2017-08-24T00:45:22.555Z,29.10
2017-08-24T00:45:26.809Z,29.15
2017-08-24T00:45:31.053Z,29.13
2017-08-24T00:45:35.308Z,30.05
2017-08-24T00:45:39.571Z,29.90
2017-08-24T00:45:43.832Z,30.50
2017-08-24T00:45:48.092Z,30.60
2017-08-24T00:45:52.329Z,30.35
2017-08-24T00:45:56.590Z,29.85
2017-08-24T00:46:00.833Z,29.37
2017-08-24T00:46:05.082Z,29.50
2017-08-24T00:46:09.345Z,29.10
2017-08-24T00:46:13.587Z,29.85
2017-08-24T00:46:17.840Z,30.00
2017-08-24T00:46:22.093Z,29.75
2017-08-24T00:46:27.097Z,29.50
2017-08-24T00:46:31.360Z,29.53
2017-08-24T00:46:35.601Z,29.40
2017-08-24T00:46:40.613Z,30.03
2017-08-24T00:46:44.880Z,30.07
2017-08-24T00:46:49.131Z,30.30
2017-08-24T00:46:53.394Z,30.50
2017-08-24T00:46:57.637Z,31.20
2017-08-24T00:47:01.890Z,31.15
2017-08-24T00:47:06.160Z,31.50
2017-08-24T00:47:10.390Z,32.20
2017-08-24T00:47:14.667Z,31.43
2017-08-24T00:47:18.925Z,31.55
2017-08-24T00:47:23.184Z,31.10
2017-08-24T00:47:27.443Z,31.40
2017-08-24T00:47:31.715Z,31.63
2017-08-24T00:47:36.124Z,32.70
2017-08-24T00:47:40.358Z,33.25
2017-08-24T00:47:44.611Z,32.90
2017-08-24T00:47:48.877Z,32.60
2017-08-24T00:47:53.128Z,32.40
2017-08-24T00:47:58.144Z,33.35
2017-08-24T00:48:02.401Z,34.13
2017-08-24T00:48:06.661Z,34.40
2017-08-24T00:48:10.899Z,34.15
2017-08-24T00:48:15.150Z,34.55
2017-08-24T00:48:19.403Z,34.13
2017-08-24T00:48:23.647Z,34.40
2017-08-24T00:48:28.675Z,34.50
2017-08-24T00:48:32.910Z,34.57
2017-08-24T00:48:37.171Z,32.75
2017-08-24T00:48:41.417Z,33.10
2017-08-24T00:48:45.658Z,33.50
2017-08-24T00:48:50.689Z,33.30
2017-08-24T00:48:54.935Z,32.70
2017-08-24T00:48:59.183Z,30.95
2017-08-24T00:49:03.433Z,30.90
2017-08-24T00:49:07.677Z,30.90
2017-08-24T00:49:11.951Z,30.80
2017-08-24T00:49:16.201Z,31.00
2017-08-24T00:49:20.463Z,31.15
2017-08-24T00:49:24.721Z,31.15
2017-08-24T00:49:28.959Z,31.05
2017-08-24T00:49:33.224Z,30.70
2017-08-24T00:49:37.457Z,30.70
2017-08-24T00:49:41.698Z,30.25
2017-08-24T00:49:45.953Z,30.40
2017-08-24T00:49:50.205Z,31.07
2017-08-24T00:49:54.453Z,31.65
2017-08-24T00:49:58.708Z,31.55
2017-08-24T00:50:02.964Z,31.50
2017-08-24T00:50:07.223Z,31.47
2017-08-24T00:50:11.475Z,31.70
2017-08-24T00:50:15.727Z,31.60
2017-08-24T00:50:20.008Z,31.80
2017-08-24T00:50:24.275Z,31.45
2017-08-24T00:50:28.527Z,31.30
2017-08-24T00:50:32.779Z,32.30
2017-08-24T00:50:37.042Z,32.43
2017-08-24T00:50:41.285Z,32.10
2017-08-24T00:50:45.543Z,32.05
2017-08-24T00:50:49.788Z,31.55
2017-08-24T00:50:54.056Z,31.20
2017-08-24T00:50:58.294Z,31.55
2017-08-24T00:51:02.571Z,31.50
2017-08-24T00:51:06.810Z,31.55
2017-08-24T00:51:11.076Z,30.97
2017-08-24T00:51:15.313Z,30.50
2017-08-24T00:51:19.571Z,30.25
2017-08-24T00:51:23.813Z,29.57
2017-08-24T00:51:28.061Z,30.55
2017-08-24T00:51:32.306Z,29.75
2017-08-24T00:51:36.559Z,29.15
2017-08-24T00:51:40.797Z,30.63
2017-08-24T00:51:45.061Z,30.10
2017-08-24T00:51:49.307Z,30.75
2017-08-24T00:51:53.549Z,31.00
2017-08-24T00:51:57.801Z,30.90
2017-08-24T00:52:02.059Z,30.90
2017-08-24T00:52:06.296Z,30.70
2017-08-24T00:52:10.551Z,31.90
2017-08-24T00:52:14.798Z,32.30
2017-08-24T00:52:19.049Z,32.60
2017-08-24T00:52:23.316Z,33.20
2017-08-24T00:52:27.567Z,33.05
2017-08-24T00:52:31.818Z,32.40
2017-08-24T00:52:36.079Z,32.15
2017-08-24T00:52:40.349Z,30.95
2017-08-24T00:52:44.597Z,31.00
2017-08-24T00:52:48.843Z,30.30
2017-08-24T00:52:53.123Z,30.10
2017-08-24T00:52:57.345Z,29.65
2017-08-24T00:53:02.361Z,29.13
2017-08-24T00:53:06.630Z,28.83
2017-08-24T00:53:10.887Z,28.30
2017-08-24T00:53:15.139Z,28.45
2017-08-24T00:53:20.145Z,28.60
2017-08-24T00:53:24.400Z,28.10
2017-08-24T00:53:28.646Z,28.10
2017-08-24T00:53:32.904Z,29.25
2017-08-24T00:53:37.153Z,29.80
2017-08-24T00:53:41.416Z,29.67
2017-08-24T00:53:45.675Z,29.80
2017-08-24T00:53:49.927Z,29.80
2017-08-24T00:53:54.176Z,29.90
2017-08-24T00:53:58.436Z,30.57
2017-08-24T00:54:02.691Z,31.70
2017-08-24T00:54:06.943Z,31.70
2017-08-24T00:54:11.200Z,31.20
2017-08-24T00:54:15.449Z,30.77
2017-08-24T00:54:19.689Z,30.75
2017-08-24T00:54:23.945Z,30.80
2017-08-24T00:54:28.189Z,30.75
2017-08-24T00:54:32.452Z,30.43
2017-08-24T00:54:36.689Z,29.95
2017-08-24T00:54:40.926Z,30.00
2017-08-24T00:54:45.191Z,29.93
2017-08-24T00:54:49.735Z,30.10
2017-08-24T00:54:53.988Z,30.20
2017-08-24T00:54:58.234Z,30.57
2017-08-24T00:55:02.495Z,30.20
2017-08-24T00:55:06.741Z,31.05
2017-08-24T00:55:10.974Z,31.05